<?xml version="1.0" encoding="UTF-8" standalone="no" ?>
<gpx xmlns="http://www.topografix.com/GPX/1/1" xmlns:xsi="http://www.w3.org/2001/XMLSchema-instance" xsi:schemaLocation="http://www.topografix.com/GPX/1/1 http://www.topografix.com/GPX/1/1/gpx.xsd" version="1.1" creator="VisuGPX - https://www.visugpx.com">
  <metadata>
    <name>15_août_2024_15_24_12 (original)-les chabrettes-1</name>
  </metadata>
  <trk>
    <name><![CDATA[15 août 2024 15:24:12]]></name>
    <trkseg>
      <trkpt lat="44.91865" lon="5.11527">
        <ele>471.6</ele>
        <time>2024-08-15T13:24:20.878Z</time>
      </trkpt>
      <trkpt lat="44.91862" lon="5.11527">
        <ele>471.1</ele>
        <time>2024-08-15T13:24:25.102Z</time>
      </trkpt>
      <trkpt lat="44.91859" lon="5.11527">
        <ele>471.1</ele>
        <time>2024-08-15T13:24:29.326Z</time>
      </trkpt>
      <trkpt lat="44.91857" lon="5.11529">
        <ele>471.4</ele>
        <time>2024-08-15T13:24:33.176Z</time>
      </trkpt>
      <trkpt lat="44.91854" lon="5.1153">
        <ele>471.7</ele>
        <time>2024-08-15T13:24:37.026Z</time>
      </trkpt>
      <trkpt lat="44.9185" lon="5.11534">
        <ele>527.3</ele>
        <time>2024-08-15T13:24:44.995Z</time>
      </trkpt>
      <trkpt lat="44.91847" lon="5.11539">
        <ele>524.6</ele>
        <time>2024-08-15T13:24:51.995Z</time>
      </trkpt>
      <trkpt lat="44.91842" lon="5.1154">
        <ele>522.4</ele>
        <time>2024-08-15T13:24:58.995Z</time>
      </trkpt>
      <trkpt lat="44.91838" lon="5.11543">
        <ele>523.5</ele>
        <time>2024-08-15T13:25:03.995Z</time>
      </trkpt>
      <trkpt lat="44.91835" lon="5.11548">
        <ele>525.4</ele>
        <time>2024-08-15T13:25:10.995Z</time>
      </trkpt>
      <trkpt lat="44.9183" lon="5.11552">
        <ele>527.7</ele>
        <time>2024-08-15T13:25:16.995Z</time>
      </trkpt>
      <trkpt lat="44.91825" lon="5.11552">
        <ele>529</ele>
        <time>2024-08-15T13:25:20.995Z</time>
      </trkpt>
      <trkpt lat="44.9182" lon="5.11553">
        <ele>529.9</ele>
        <time>2024-08-15T13:25:25.995Z</time>
      </trkpt>
      <trkpt lat="44.91815" lon="5.11555">
        <ele>530.4</ele>
        <time>2024-08-15T13:25:32.995Z</time>
      </trkpt>
      <trkpt lat="44.91811" lon="5.11559">
        <ele>530.7</ele>
        <time>2024-08-15T13:25:38.995Z</time>
      </trkpt>
      <trkpt lat="44.91808" lon="5.11565">
        <ele>531.4</ele>
        <time>2024-08-15T13:25:43.995Z</time>
      </trkpt>
      <trkpt lat="44.91806" lon="5.11571">
        <ele>534.6</ele>
        <time>2024-08-15T13:25:50.995Z</time>
      </trkpt>
      <trkpt lat="44.91801" lon="5.11574">
        <ele>536.5</ele>
        <time>2024-08-15T13:25:54.995Z</time>
      </trkpt>
      <trkpt lat="44.91797" lon="5.11578">
        <ele>537</ele>
        <time>2024-08-15T13:26:00.995Z</time>
      </trkpt>
      <trkpt lat="44.91794" lon="5.11584">
        <ele>536.6</ele>
        <time>2024-08-15T13:26:07.995Z</time>
      </trkpt>
      <trkpt lat="44.91789" lon="5.11585">
        <ele>535</ele>
        <time>2024-08-15T13:26:13.995Z</time>
      </trkpt>
      <trkpt lat="44.91784" lon="5.11587">
        <ele>534.2</ele>
        <time>2024-08-15T13:26:16.995Z</time>
      </trkpt>
      <trkpt lat="44.9178" lon="5.11591">
        <ele>533.9</ele>
        <time>2024-08-15T13:26:22.995Z</time>
      </trkpt>
      <trkpt lat="44.91777" lon="5.11596">
        <ele>533.7</ele>
        <time>2024-08-15T13:26:30.995Z</time>
      </trkpt>
      <trkpt lat="44.91772" lon="5.11599">
        <ele>535.2</ele>
        <time>2024-08-15T13:26:38.995Z</time>
      </trkpt>
      <trkpt lat="44.91769" lon="5.11605">
        <ele>536.5</ele>
        <time>2024-08-15T13:26:44.995Z</time>
      </trkpt>
      <trkpt lat="44.91765" lon="5.1161">
        <ele>537.5</ele>
        <time>2024-08-15T13:26:49.995Z</time>
      </trkpt>
      <trkpt lat="44.91761" lon="5.11616">
        <ele>538.7</ele>
        <time>2024-08-15T13:26:53.995Z</time>
      </trkpt>
      <trkpt lat="44.91757" lon="5.11619">
        <ele>540</ele>
        <time>2024-08-15T13:26:58.995Z</time>
      </trkpt>
      <trkpt lat="44.91754" lon="5.11624">
        <ele>542.7</ele>
        <time>2024-08-15T13:27:07.995Z</time>
      </trkpt>
      <trkpt lat="44.91751" lon="5.11629">
        <ele>543.8</ele>
        <time>2024-08-15T13:27:14.995Z</time>
      </trkpt>
      <trkpt lat="44.91748" lon="5.11634">
        <ele>544.7</ele>
        <time>2024-08-15T13:27:21.995Z</time>
      </trkpt>
      <trkpt lat="44.91744" lon="5.11638">
        <ele>546.3</ele>
        <time>2024-08-15T13:27:27.995Z</time>
      </trkpt>
      <trkpt lat="44.9174" lon="5.11642">
        <ele>547.1</ele>
        <time>2024-08-15T13:27:34.995Z</time>
      </trkpt>
      <trkpt lat="44.91736" lon="5.11645">
        <ele>548.2</ele>
        <time>2024-08-15T13:27:37.995Z</time>
      </trkpt>
      <trkpt lat="44.91733" lon="5.11649">
        <ele>549.1</ele>
        <time>2024-08-15T13:27:43.995Z</time>
      </trkpt>
      <trkpt lat="44.91727" lon="5.1165">
        <ele>548.7</ele>
        <time>2024-08-15T13:27:47.995Z</time>
      </trkpt>
      <trkpt lat="44.91723" lon="5.11653">
        <ele>547</ele>
        <time>2024-08-15T13:27:55.995Z</time>
      </trkpt>
      <trkpt lat="44.91725" lon="5.11659">
        <ele>544.6</ele>
        <time>2024-08-15T13:28:06.995Z</time>
      </trkpt>
      <trkpt lat="44.91724" lon="5.11666">
        <ele>547.2</ele>
        <time>2024-08-15T13:28:26.995Z</time>
      </trkpt>
      <trkpt lat="44.91719" lon="5.11669">
        <ele>548.9</ele>
        <time>2024-08-15T13:28:31.995Z</time>
      </trkpt>
      <trkpt lat="44.91718" lon="5.11675">
        <ele>551.4</ele>
        <time>2024-08-15T13:28:43.995Z</time>
      </trkpt>
      <trkpt lat="44.91714" lon="5.11682">
        <ele>553.8</ele>
        <time>2024-08-15T13:28:51.995Z</time>
      </trkpt>
      <trkpt lat="44.9171" lon="5.11685">
        <ele>555.1</ele>
        <time>2024-08-15T13:28:55.995Z</time>
      </trkpt>
      <trkpt lat="44.91706" lon="5.11688">
        <ele>556.1</ele>
        <time>2024-08-15T13:28:59.995Z</time>
      </trkpt>
      <trkpt lat="44.91704" lon="5.11694">
        <ele>556.3</ele>
        <time>2024-08-15T13:29:05.995Z</time>
      </trkpt>
      <trkpt lat="44.91699" lon="5.11697">
        <ele>557</ele>
        <time>2024-08-15T13:29:13.995Z</time>
      </trkpt>
      <trkpt lat="44.91695" lon="5.11701">
        <ele>557</ele>
        <time>2024-08-15T13:29:19.995Z</time>
      </trkpt>
      <trkpt lat="44.91691" lon="5.11704">
        <ele>556.7</ele>
        <time>2024-08-15T13:29:23.995Z</time>
      </trkpt>
      <trkpt lat="44.91688" lon="5.1171">
        <ele>556.6</ele>
        <time>2024-08-15T13:29:30.995Z</time>
      </trkpt>
      <trkpt lat="44.91684" lon="5.11714">
        <ele>555.5</ele>
        <time>2024-08-15T13:29:38.995Z</time>
      </trkpt>
      <trkpt lat="44.91679" lon="5.11717">
        <ele>555.6</ele>
        <time>2024-08-15T13:29:44.995Z</time>
      </trkpt>
      <trkpt lat="44.91674" lon="5.11721">
        <ele>555.4</ele>
        <time>2024-08-15T13:29:55.995Z</time>
      </trkpt>
      <trkpt lat="44.91669" lon="5.11724">
        <ele>557</ele>
        <time>2024-08-15T13:30:10.995Z</time>
      </trkpt>
      <trkpt lat="44.91664" lon="5.11726">
        <ele>564.5</ele>
        <time>2024-08-15T13:30:26.995Z</time>
      </trkpt>
      <trkpt lat="44.9166" lon="5.1173">
        <ele>565.5</ele>
        <time>2024-08-15T13:30:32.995Z</time>
      </trkpt>
      <trkpt lat="44.91657" lon="5.11734">
        <ele>566.5</ele>
        <time>2024-08-15T13:30:38.995Z</time>
      </trkpt>
      <trkpt lat="44.91652" lon="5.11739">
        <ele>568.1</ele>
        <time>2024-08-15T13:30:43.995Z</time>
      </trkpt>
      <trkpt lat="44.91649" lon="5.11744">
        <ele>570.4</ele>
        <time>2024-08-15T13:30:49.995Z</time>
      </trkpt>
      <trkpt lat="44.91645" lon="5.11748">
        <ele>571.4</ele>
        <time>2024-08-15T13:30:58.995Z</time>
      </trkpt>
      <trkpt lat="44.91643" lon="5.11754">
        <ele>572.5</ele>
        <time>2024-08-15T13:31:08.995Z</time>
      </trkpt>
      <trkpt lat="44.91639" lon="5.11756">
        <ele>572.9</ele>
        <time>2024-08-15T13:31:13.995Z</time>
      </trkpt>
      <trkpt lat="44.91635" lon="5.11758">
        <ele>573.2</ele>
        <time>2024-08-15T13:31:19.995Z</time>
      </trkpt>
      <trkpt lat="44.91632" lon="5.11763">
        <ele>574.1</ele>
        <time>2024-08-15T13:31:23.995Z</time>
      </trkpt>
      <trkpt lat="44.91628" lon="5.11768">
        <ele>577.1</ele>
        <time>2024-08-15T13:31:34.995Z</time>
      </trkpt>
      <trkpt lat="44.91624" lon="5.11775">
        <ele>579.3</ele>
        <time>2024-08-15T13:31:41.995Z</time>
      </trkpt>
      <trkpt lat="44.91622" lon="5.1178">
        <ele>580.5</ele>
        <time>2024-08-15T13:31:46.995Z</time>
      </trkpt>
      <trkpt lat="44.91621" lon="5.11787">
        <ele>582.4</ele>
        <time>2024-08-15T13:31:54.995Z</time>
      </trkpt>
      <trkpt lat="44.91618" lon="5.11793">
        <ele>582.8</ele>
        <time>2024-08-15T13:31:59.995Z</time>
      </trkpt>
      <trkpt lat="44.91616" lon="5.11798">
        <ele>582.2</ele>
        <time>2024-08-15T13:32:04.995Z</time>
      </trkpt>
      <trkpt lat="44.91616" lon="5.11804">
        <ele>579.6</ele>
        <time>2024-08-15T13:32:12.995Z</time>
      </trkpt>
      <trkpt lat="44.91612" lon="5.11805">
        <ele>575.1</ele>
        <time>2024-08-15T13:32:24.995Z</time>
      </trkpt>
      <trkpt lat="44.91609" lon="5.11811">
        <ele>572.1</ele>
        <time>2024-08-15T13:32:36.995Z</time>
      </trkpt>
      <trkpt lat="44.91609" lon="5.11818">
        <ele>573.3</ele>
        <time>2024-08-15T13:32:45.995Z</time>
      </trkpt>
      <trkpt lat="44.91605" lon="5.11821">
        <ele>573.6</ele>
        <time>2024-08-15T13:32:51.995Z</time>
      </trkpt>
      <trkpt lat="44.91602" lon="5.11827">
        <ele>575.1</ele>
        <time>2024-08-15T13:32:58.995Z</time>
      </trkpt>
      <trkpt lat="44.91602" lon="5.11834">
        <ele>577.5</ele>
        <time>2024-08-15T13:33:05.995Z</time>
      </trkpt>
      <trkpt lat="44.91603" lon="5.1184">
        <ele>580.1</ele>
        <time>2024-08-15T13:33:10.995Z</time>
      </trkpt>
      <trkpt lat="44.916" lon="5.11846">
        <ele>580.9</ele>
        <time>2024-08-15T13:33:14.995Z</time>
      </trkpt>
      <trkpt lat="44.91597" lon="5.11852">
        <ele>584.8</ele>
        <time>2024-08-15T13:33:24.995Z</time>
      </trkpt>
      <trkpt lat="44.91596" lon="5.11858">
        <ele>587</ele>
        <time>2024-08-15T13:33:28.995Z</time>
      </trkpt>
      <trkpt lat="44.91593" lon="5.11864">
        <ele>589.7</ele>
        <time>2024-08-15T13:33:35.995Z</time>
      </trkpt>
      <trkpt lat="44.91591" lon="5.11871">
        <ele>589.3</ele>
        <time>2024-08-15T13:33:40.995Z</time>
      </trkpt>
      <trkpt lat="44.91586" lon="5.11873">
        <ele>592.2</ele>
        <time>2024-08-15T13:33:53.995Z</time>
      </trkpt>
      <trkpt lat="44.91582" lon="5.11877">
        <ele>592.5</ele>
        <time>2024-08-15T13:33:59.995Z</time>
      </trkpt>
      <trkpt lat="44.91583" lon="5.11884">
        <ele>591.6</ele>
        <time>2024-08-15T13:34:11.995Z</time>
      </trkpt>
      <trkpt lat="44.91582" lon="5.11891">
        <ele>592.3</ele>
        <time>2024-08-15T13:34:35.995Z</time>
      </trkpt>
      <trkpt lat="44.91582" lon="5.11898">
        <ele>589.7</ele>
        <time>2024-08-15T13:34:44.995Z</time>
      </trkpt>
      <trkpt lat="44.91578" lon="5.11903">
        <ele>593.2</ele>
        <time>2024-08-15T13:35:02.995Z</time>
      </trkpt>
      <trkpt lat="44.91573" lon="5.11905">
        <ele>595.3</ele>
        <time>2024-08-15T13:35:06.995Z</time>
      </trkpt>
      <trkpt lat="44.91568" lon="5.11907">
        <ele>598.8</ele>
        <time>2024-08-15T13:35:13.995Z</time>
      </trkpt>
      <trkpt lat="44.91564" lon="5.11911">
        <ele>600.2</ele>
        <time>2024-08-15T13:35:21.995Z</time>
      </trkpt>
      <trkpt lat="44.91566" lon="5.11917">
        <ele>602</ele>
        <time>2024-08-15T13:35:29.995Z</time>
      </trkpt>
      <trkpt lat="44.91566" lon="5.11923">
        <ele>603</ele>
        <time>2024-08-15T13:35:37.995Z</time>
      </trkpt>
      <trkpt lat="44.91562" lon="5.11928">
        <ele>604.6</ele>
        <time>2024-08-15T13:35:54.995Z</time>
      </trkpt>
      <trkpt lat="44.91559" lon="5.11933">
        <ele>604.4</ele>
        <time>2024-08-15T13:36:03.995Z</time>
      </trkpt>
      <trkpt lat="44.91559" lon="5.11945">
        <ele>604.6</ele>
        <time>2024-08-15T13:36:38.995Z</time>
      </trkpt>
      <trkpt lat="44.91554" lon="5.11948">
        <ele>605.3</ele>
        <time>2024-08-15T13:36:46.995Z</time>
      </trkpt>
      <trkpt lat="44.91552" lon="5.11954">
        <ele>606.3</ele>
        <time>2024-08-15T13:36:53.995Z</time>
      </trkpt>
      <trkpt lat="44.91549" lon="5.11959">
        <ele>608.1</ele>
        <time>2024-08-15T13:37:00.995Z</time>
      </trkpt>
      <trkpt lat="44.91547" lon="5.11966">
        <ele>609.2</ele>
        <time>2024-08-15T13:37:16.995Z</time>
      </trkpt>
      <trkpt lat="44.91544" lon="5.11971">
        <ele>609.9</ele>
        <time>2024-08-15T13:37:21.995Z</time>
      </trkpt>
      <trkpt lat="44.91541" lon="5.11977">
        <ele>612.5</ele>
        <time>2024-08-15T13:37:28.995Z</time>
      </trkpt>
      <trkpt lat="44.91537" lon="5.1198">
        <ele>613.7</ele>
        <time>2024-08-15T13:37:36.995Z</time>
      </trkpt>
      <trkpt lat="44.91532" lon="5.11983">
        <ele>614.9</ele>
        <time>2024-08-15T13:37:44.995Z</time>
      </trkpt>
      <trkpt lat="44.91529" lon="5.11988">
        <ele>616.1</ele>
        <time>2024-08-15T13:37:49.995Z</time>
      </trkpt>
      <trkpt lat="44.91525" lon="5.11992">
        <ele>618.1</ele>
        <time>2024-08-15T13:37:57.995Z</time>
      </trkpt>
      <trkpt lat="44.91522" lon="5.11997">
        <ele>619.6</ele>
        <time>2024-08-15T13:38:11.995Z</time>
      </trkpt>
      <trkpt lat="44.91518" lon="5.12001">
        <ele>618.6</ele>
        <time>2024-08-15T13:38:15.995Z</time>
      </trkpt>
      <trkpt lat="44.91512" lon="5.12003">
        <ele>616.7</ele>
        <time>2024-08-15T13:38:25.995Z</time>
      </trkpt>
      <trkpt lat="44.91508" lon="5.12007">
        <ele>618.1</ele>
        <time>2024-08-15T13:38:35.995Z</time>
      </trkpt>
      <trkpt lat="44.91504" lon="5.12012">
        <ele>619.3</ele>
        <time>2024-08-15T13:38:43.995Z</time>
      </trkpt>
      <trkpt lat="44.91501" lon="5.12017">
        <ele>620.8</ele>
        <time>2024-08-15T13:38:53.995Z</time>
      </trkpt>
      <trkpt lat="44.91498" lon="5.12022">
        <ele>622.6</ele>
        <time>2024-08-15T13:39:11.995Z</time>
      </trkpt>
      <trkpt lat="44.91494" lon="5.12027">
        <ele>623</ele>
        <time>2024-08-15T13:39:17.995Z</time>
      </trkpt>
      <trkpt lat="44.91489" lon="5.1203">
        <ele>625.1</ele>
        <time>2024-08-15T13:39:25.995Z</time>
      </trkpt>
      <trkpt lat="44.91485" lon="5.12034">
        <ele>625.3</ele>
        <time>2024-08-15T13:39:32.995Z</time>
      </trkpt>
      <trkpt lat="44.91482" lon="5.1204">
        <ele>625.4</ele>
        <time>2024-08-15T13:39:39.995Z</time>
      </trkpt>
      <trkpt lat="44.91477" lon="5.12043">
        <ele>626</ele>
        <time>2024-08-15T13:39:43.995Z</time>
      </trkpt>
      <trkpt lat="44.91472" lon="5.12043">
        <ele>629.1</ele>
        <time>2024-08-15T13:39:50.995Z</time>
      </trkpt>
      <trkpt lat="44.91468" lon="5.12046">
        <ele>631.1</ele>
        <time>2024-08-15T13:40:02.995Z</time>
      </trkpt>
      <trkpt lat="44.91467" lon="5.12053">
        <ele>633.4</ele>
        <time>2024-08-15T13:40:14.995Z</time>
      </trkpt>
      <trkpt lat="44.91467" lon="5.12059">
        <ele>633.4</ele>
        <time>2024-08-15T13:40:22.995Z</time>
      </trkpt>
      <trkpt lat="44.91465" lon="5.12065">
        <ele>635</ele>
        <time>2024-08-15T13:40:29.995Z</time>
      </trkpt>
      <trkpt lat="44.91463" lon="5.12072">
        <ele>636.6</ele>
        <time>2024-08-15T13:40:35.995Z</time>
      </trkpt>
      <trkpt lat="44.9146" lon="5.12077">
        <ele>637.4</ele>
        <time>2024-08-15T13:40:39.995Z</time>
      </trkpt>
      <trkpt lat="44.91457" lon="5.12083">
        <ele>640.3</ele>
        <time>2024-08-15T13:40:44.995Z</time>
      </trkpt>
      <trkpt lat="44.91457" lon="5.1209">
        <ele>579</ele>
        <time>2024-08-15T13:40:52.545Z</time>
      </trkpt>
      <trkpt lat="44.91457" lon="5.1209">
        <ele>579.1</ele>
        <time>2024-08-15T13:40:52.999Z</time>
      </trkpt>
      <trkpt lat="44.91457" lon="5.1209">
        <ele>579.1</ele>
        <time>2024-08-15T13:40:53.453Z</time>
      </trkpt>
    </trkseg>
  </trk>
</gpx>